Time;durP1;ratioP1;P1;durP2;ratioP2;P2;SDS_P1;SDS_P2;PMS_P1;PMS_P2;Temp;Humidity;BMP_temperature;BMP_pressure;BME280_temperature;BME280_humidity;BME280_pressure;Samples;Min_cycle;Max_cycle;Signal;HPM_P1;HPM_P2
2022/10/17 00:00:23;;;;;;;27.17;7.68;;;;;;;11.05;100.00;101395.22;10362362;28;20041;-82
2022/10/17 00:05:24;;;;;;;14.15;4.63;;;;;;;10.99;100.00;101391.44;10361936;28;20107;-82
2022/10/17 00:10:24;;;;;;;14.45;5.70;;;;;;;10.95;100.00;101388.56;10346118;28;20493;-81
2022/10/17 00:15:25;;;;;;;49.45;8.40;;;;;;;11.00;100.00;101388.00;10362428;28;20482;-82
2022/10/17 00:20:25;;;;;;;12.20;5.15;;;;;;;10.97;100.00;101381.69;10361488;28;20038;-81
2022/10/17 00:25:26;;;;;;;25.00;9.35;;;;;;;10.95;100.00;101384.25;10345776;28;20038;-81
2022/10/17 00:30:27;;;;;;;15.48;7.35;;;;;;;11.01;100.00;101379.34;10362923;28;20045;-79
2022/10/17 00:35:27;;;;;;;38.25;6.72;;;;;;;10.94;100.00;101385.06;10361266;28;20052;-81
2022/10/17 00:40:28;;;;;;;9.98;5.88;;;;;;;10.92;100.00;101386.69;10360893;28;20057;-82
2022/10/17 00:45:29;;;;;;;39.75;8.23;;;;;;;10.90;100.00;101383.09;10362790;28;20048;-82
2022/10/17 00:50:30;;;;;;;142.43;19.97;;;;;;;10.91;100.00;101373.50;10344979;28;20076;-82
2022/10/17 00:55:32;;;;;;;27.08;12.98;;;;;;;11.00;100.00;101374.00;10359950;28;20451;-82
2022/10/17 01:00:32;;;;;;;;;;;;;;;11.08;100.00;101377.94;10360855;28;20494;-82
2022/10/17 01:05:33;;;;;;;16.08;7.03;;;;;;;11.17;100.00;101380.16;10359230;28;19925;-82
2022/10/17 01:10:48;;;;;;;31.95;12.23;;;;;;;11.15;100.00;101382.69;10359744;28;20149;-83
2022/10/17 01:16:20;;;;;;;91.00;15.60;;;;;;;11.11;100.00;101380.72;10360244;28;20405;-82
2022/10/17 01:21:50;;;;;;;34.50;11.00;;;;;;;11.12;100.00;101372.03;10308243;28;20044;-82
2022/10/17 01:26:58;;;;;;;57.53;16.13;;;;;;;11.13;100.00;101368.59;10344137;28;20495;-82
2022/10/17 01:32:00;;;;;;;40.33;14.73;;;;;;;11.40;100.00;101360.38;10358678;28;20063;-82
2022/10/17 01:37:05;;;;;;;28.45;12.35;;;;;;;11.28;100.00;101372.84;10357289;28;20041;-82
2022/10/17 01:42:12;;;;;;;27.20;13.98;;;;;;;11.22;100.00;101367.28;10359945;28;20041;-82
2022/10/17 01:47:16;;;;;;;31.83;14.98;;;;;;;11.22;100.00;101364.66;10359323;28;20042;-83
2022/10/17 01:52:22;;;;;;;30.90;17.35;;;;;;;11.34;100.00;101362.69;10341126;28;20045;-82
2022/10/17 01:57:28;;;;;;;29.95;15.23;;;;;;;11.28;100.00;101360.66;10342700;28;20115;-83
2022/10/17 02:02:28;;;;;;;54.50;20.52;;;;;;;11.21;100.00;101353.31;10360407;28;20145;-82
2022/10/17 02:07:29;;;;;;;30.08;14.88;;;;;;;11.13;100.00;101352.00;10340697;28;20045;-83
2022/10/17 02:12:37;;;;;;;169.13;33.47;;;;;;;11.11;100.00;101346.66;10358879;28;20096;-82
2022/10/17 02:17:37;;;;;;;26.98;14.35;;;;;;;11.10;100.00;101336.13;10321569;28;20042;-83
2022/10/17 02:23:12;;;;;;;40.33;18.13;;;;;;;11.12;100.00;101331.84;10357806;28;20053;-83
2022/10/17 02:28:19;;;;;;;34.00;16.83;;;;;;;11.12;100.00;101339.72;10346279;28;20042;-83
2022/10/17 02:33:30;;;;;;;28.02;16.52;;;;;;;11.05;100.00;101333.22;10357429;28;20037;-83
2022/10/17 02:38:30;;;;;;;29.00;14.18;;;;;;;11.08;100.00;101337.75;10359397;28;20038;-83
2022/10/17 02:43:31;;;;;;;41.03;21.80;;;;;;;11.11;100.00;101336.19;10358809;28;20038;-83
2022/10/17 02:48:52;;;;;;;83.35;22.92;;;;;;;11.15;100.00;101332.91;10359656;28;20117;-83
2022/10/17 02:54:00;;;;;;;33.85;18.33;;;;;;;11.19;100.00;101333.97;10325090;28;20575;-82
2022/10/17 02:59:00;;;;;;;43.60;19.00;;;;;;;11.18;100.00;101333.88;10341365;28;20038;-83
2022/10/17 03:04:08;;;;;;;27.88;17.33;;;;;;;11.24;100.00;101336.81;10339249;28;20034;-82
2022/10/17 03:09:09;;;;;;;32.30;17.70;;;;;;;11.10;100.00;101338.72;10363398;28;20042;-82
2022/10/17 03:14:09;;;;;;;39.08;15.70;;;;;;;11.16;100.00;101331.19;10363547;28;20034;-82
2022/10/17 03:19:10;;;;;;;38.42;20.98;;;;;;;11.28;100.00;101350.19;10365699;28;20457;-82
2022/10/17 03:24:10;;;;;;;40.03;21.17;;;;;;;11.36;100.00;101347.94;10365649;28;20545;-82
2022/10/17 03:29:12;;;;;;;52.25;22.08;;;;;;;11.41;100.00;101364.81;10363550;28;20083;-83
2022/10/17 03:34:15;;;;;;;41.92;20.30;;;;;;;11.40;100.00;101365.63;10324185;28;20049;-83
2022/10/17 03:39:16;;;;;;;41.10;21.83;;;;;;;11.45;100.00;101355.41;10349353;28;20034;-83
2022/10/17 03:44:16;;;;;;;29.15;17.20;;;;;;;11.40;100.00;101365.63;10363191;28;20044;-83
2022/10/17 03:49:17;;;;;;;41.58;19.98;;;;;;;11.38;100.00;101367.28;10362401;28;20034;-83
2022/10/17 03:54:17;;;;;;;34.05;19.35;;;;;;;11.41;100.00;101370.06;10346832;28;20037;-82
2022/10/17 03:59:18;;;;;;;38.10;17.77;;;;;;;11.47;100.00;101374.72;10363441;28;20044;-83
2022/10/17 04:04:18;;;;;;;38.72;19.45;;;;;;;11.58;100.00;101367.41;10361781;28;20041;-83
2022/10/17 04:09:19;;;;;;;35.03;15.48;;;;;;;11.65;100.00;101366.91;10365641;28;20083;-82
2022/10/17 04:14:19;;;;;;;27.65;17.80;;;;;;;11.64;100.00;101372.97;10363250;28;20034;-81
2022/10/17 04:19:20;;;;;;;40.20;21.13;;;;;;;11.68;100.00;101387.16;10364197;28;20184;-82
2022/10/17 04:24:20;;;;;;;35.20;18.85;;;;;;;11.79;100.00;101385.06;10363213;28;20076;-80
2022/10/17 04:29:21;;;;;;;35.80;23.23;;;;;;;11.87;100.00;101399.47;10364202;28;20056;-82
2022/10/17 04:34:21;;;;;;;42.20;23.50;;;;;;;11.94;100.00;101403.31;10360875;28;20137;-82
2022/10/17 04:39:22;;;;;;;107.57;69.05;;;;;;;11.94;100.00;101398.06;10359371;28;20383;-84
2022/10/17 04:44:22;;;;;;;50.35;20.85;;;;;;;11.87;100.00;101396.84;10361585;28;20046;-83
2022/10/17 04:49:23;;;;;;;31.30;16.13;;;;;;;11.80;100.00;101398.28;10340669;28;20037;-85
2022/10/17 04:54:24;;;;;;;124.00;30.00;;;;;;;11.78;100.00;101405.16;10357306;28;20045;-82
2022/10/17 04:59:24;;;;;;;36.05;18.65;;;;;;;11.71;100.00;101408.28;10362545;28;20471;-81
2022/10/17 05:04:25;;;;;;;38.50;18.35;;;;;;;11.69;100.00;101415.16;10358417;28;20041;-82
2022/10/17 05:09:26;;;;;;;43.45;22.58;;;;;;;11.63;100.00;101414.84;10360052;28;20045;-80
2022/10/17 05:14:27;;;;;;;40.95;21.60;;;;;;;11.65;100.00;101421.06;10360367;28;20125;-82
2022/10/17 05:19:29;;;;;;;126.22;35.03;;;;;;;11.60;100.00;101418.19;10359478;28;20046;-84
2022/10/17 05:24:32;;;;;;;69.25;31.42;;;;;;;11.45;100.00;101419.19;10358110;28;20046;-83
2022/10/17 05:29:33;;;;;;;52.22;36.92;;;;;;;11.50;100.00;101410.66;10357787;28;20061;-82
2022/10/17 05:34:33;;;;;;;195.50;33.42;;;;;;;11.48;100.00;101420.19;10360227;28;20042;-82
2022/10/17 05:39:34;;;;;;;63.83;18.45;;;;;;;11.35;100.00;101423.88;10356713;28;20052;-82
2022/10/17 05:44:34;;;;;;;66.53;19.77;;;;;;;11.31;100.00;101420.19;10358987;28;20033;-82
2022/10/17 05:49:35;;;;;;;54.92;19.95;;;;;;;11.35;100.00;101426.50;10358756;28;20075;-86
2022/10/17 05:54:36;;;;;;;36.95;16.35;;;;;;;11.39;100.00;101424.09;10353206;28;20129;-82
2022/10/17 05:59:36;;;;;;;27.60;14.90;;;;;;;11.46;100.00;101431.47;10356512;28;20441;-81
2022/10/17 06:04:37;;;;;;;35.42;19.20;;;;;;;11.51;100.00;101429.13;10357180;28;20045;-82
2022/10/17 06:09:38;;;;;;;38.88;15.77;;;;;;;11.50;100.00;101442.13;10357532;28;20046;-85
2022/10/17 06:14:39;;;;;;;24.97;15.90;;;;;;;11.54;100.00;101437.16;10355660;28;20525;-79
2022/10/17 06:19:40;;;;;;;34.70;19.23;;;;;;;11.78;100.00;101447.13;10357736;28;20133;-81
2022/10/17 06:24:41;;;;;;;31.88;21.02;;;;;;;11.87;100.00;101459.78;10354790;28;20075;-81
2022/10/17 06:29:41;;;;;;;36.85;21.40;;;;;;;11.97;100.00;101461.19;10359853;28;20149;-84
2022/10/17 06:34:42;;;;;;;46.22;19.95;;;;;;;12.08;100.00;101454.78;10355190;28;20044;-83
2022/10/17 06:39:44;;;;;;;35.38;19.05;;;;;;;12.22;100.00;101465.97;10356445;28;20128;-81
2022/10/17 06:44:44;;;;;;;36.03;17.40;;;;;;;12.42;100.00;101463.44;10354817;28;20065;-84
2022/10/17 06:49:45;;;;;;;41.17;17.90;;;;;;;12.60;100.00;101455.59;10357555;28;20070;-80
2022/10/17 06:54:46;;;;;;;24.63;16.05;;;;;;;12.77;100.00;101462.56;10358296;28;20128;-81
2022/10/17 06:59:47;;;;;;;31.70;19.02;;;;;;;12.89;100.00;101467.50;10356404;28;20037;-80
2022/10/17 07:04:47;;;;;;;30.10;17.02;;;;;;;13.04;100.00;101471.66;10322969;28;20069;-84
2022/10/17 07:09:48;;;;;;;26.45;14.20;;;;;;;13.18;100.00;101470.59;10359647;28;20034;-83
2022/10/17 07:14:49;;;;;;;27.27;17.70;;;;;;;13.25;100.00;101477.03;10356526;28;20072;-82
2022/10/17 07:19:49;;;;;;;31.10;18.10;;;;;;;13.31;100.00;101485.22;10340874;28;20058;-82
2022/10/17 07:24:50;;;;;;;32.35;19.45;;;;;;;13.67;100.00;101488.59;10357830;28;21501;-84
2022/10/17 07:29:50;;;;;;;45.35;21.58;;;;;;;13.88;100.00;101496.53;10358784;28;20030;-84
2022/10/17 07:34:51;;;;;;;40.38;17.90;;;;;;;14.29;100.00;101502.69;10354294;28;20153;-83
2022/10/17 07:39:51;;;;;;;43.28;21.25;;;;;;;14.50;100.00;101510.59;10357214;28;20081;-84
2022/10/17 07:44:52;;;;;;;31.38;20.15;;;;;;;14.85;100.00;101507.63;10356479;28;20528;-83
2022/10/17 07:49:52;;;;;;;28.90;15.98;;;;;;;14.98;100.00;101522.22;10356383;28;20062;-83
2022/10/17 07:54:53;;;;;;;20.20;15.18;;;;;;;15.41;100.00;101537.09;10365283;28;20121;-83
2022/10/17 07:59:54;;;;;;;18.70;12.38;;;;;;;15.75;100.00;101534.81;10364969;28;20409;-81
2022/10/17 08:04:54;;;;;;;23.02;12.48;;;;;;;15.78;100.00;101542.84;10364151;28;20045;-81
2022/10/17 08:09:55;;;;;;;14.65;9.68;;;;;;;16.05;100.00;101565.84;10333732;28;20046;-81
2022/10/17 08:14:55;;;;;;;12.85;9.23;;;;;;;15.99;100.00;101577.09;10361078;28;20049;-78
2022/10/17 08:19:56;;;;;;;11.43;8.73;;;;;;;16.39;100.00;101568.81;10363846;28;20051;-79
2022/10/17 08:24:56;;;;;;;12.57;7.13;;;;;;;16.57;100.00;101592.31;10360994;28;20065;-79
2022/10/17 08:29:57;;;;;;;7.18;5.72;;;;;;;16.71;100.00;101608.66;10362649;28;20177;-80
2022/10/17 08:34:57;;;;;;;9.50;4.25;;;;;;;17.06;100.00;101605.41;10359763;28;20034;-80
2022/10/17 08:39:58;;;;;;;7.45;5.05;;;;;;;17.20;100.00;101617.34;10360632;28;20433;-82
2022/10/17 08:45:17;;;;;;;12.75;5.15;;;;;;;17.53;99.35;101634.25;10344500;28;20045;-79
2022/10/17 08:50:34;;;;;;;11.32;5.00;;;;;;;18.18;94.52;101642.41;10361809;28;20030;-81
2022/10/17 08:55:39;;;;;;;10.07;5.22;;;;;;;18.39;91.11;101649.16;10362400;28;20398;-78
2022/10/17 09:00:45;;;;;;;13.05;5.25;;;;;;;18.17;92.85;101647.66;10343755;28;20394;-77
2022/10/17 09:05:55;;;;;;;10.73;4.95;;;;;;;17.98;95.20;101657.69;10343275;28;20394;-78
2022/10/17 09:11:18;;;;;;;10.88;5.50;;;;;;;17.63;95.59;101648.66;10347620;28;20038;-77
2022/10/17 09:16:31;;;;;;;8.35;5.22;;;;;;;17.32;100.00;101670.66;10359876;28;20494;-78
2022/10/17 09:21:46;;;;;;;14.95;6.28;;;;;;;17.01;100.00;101692.53;10361855;28;20402;-78
2022/10/17 09:26:46;;;;;;;12.63;7.07;;;;;;;16.75;100.00;101695.16;10360424;28;20072;-77
2022/10/17 09:31:55;;;;;;;13.05;6.18;;;;;;;16.57;100.00;101698.94;10359671;28;20149;-79
2022/10/17 09:36:57;;;;;;;10.82;6.88;;;;;;;16.47;100.00;101688.88;10324563;28;20062;-81
2022/10/17 09:41:59;;;;;;;14.77;7.93;;;;;;;16.51;100.00;101674.91;10343237;28;20037;-81
2022/10/17 09:47:23;;;;;;;15.10;6.82;;;;;;;16.47;100.00;101673.00;10345248;28;20037;-80
2022/10/17 09:52:29;;;;;;;14.90;6.60;;;;;;;16.56;100.00;101661.84;10359940;28;20076;-79
2022/10/17 09:57:59;;;;;;;19.60;9.40;;;;;;;16.65;100.00;101685.97;10343375;28;20030;-80
2022/10/17 10:03:30;;;;;;;17.05;7.65;;;;;;;16.72;100.00;101714.41;10345047;28;20038;-80
2022/10/17 10:08:35;;;;;;;13.10;6.72;;;;;;;16.63;100.00;101724.66;10276777;28;20042;-80
2022/10/17 10:13:36;;;;;;;14.10;7.50;;;;;;;16.54;100.00;101733.16;10257580;28;20424;-81
2022/10/17 10:18:36;;;;;;;14.52;7.50;;;;;;;16.35;100.00;101712.19;10276582;28;20047;-81
2022/10/17 10:23:40;;;;;;;12.57;7.75;;;;;;;16.14;100.00;101705.25;10254656;28;20067;-82
2022/10/17 10:28:47;;;;;;;13.18;7.43;;;;;;;15.99;100.00;101734.59;10239946;28;20039;-81
2022/10/17 10:33:47;;;;;;;21.17;9.55;;;;;;;15.96;100.00;101738.03;10238450;28;20420;-81
2022/10/17 10:38:52;;;;;;;21.00;9.43;;;;;;;16.11;100.00;101735.06;10238667;28;20043;-81
2022/10/17 10:43:53;;;;;;;15.65;9.63;;;;;;;16.18;100.00;101723.00;10239670;28;20078;-82
2022/10/17 10:48:58;;;;;;;15.18;9.70;;;;;;;16.36;100.00;101708.69;10237170;28;20110;-82
2022/10/17 10:54:24;;;;;;;18.27;9.77;;;;;;;16.55;100.00;101726.13;10238245;28;20043;-82
2022/10/17 10:59:34;;;;;;;14.02;9.15;;;;;;;16.60;100.00;101753.63;10206583;28;20035;-82
2022/10/17 11:05:18;;;;;;;18.50;9.63;;;;;;;16.64;100.00;101752.00;10240740;28;20058;-81
2022/10/17 11:10:30;;;;;;;14.45;8.85;;;;;;;16.63;100.00;101760.78;10296978;28;20050;-82
2022/10/17 11:15:35;;;;;;;13.25;8.85;;;;;;;16.53;100.00;101780.66;10302034;28;20069;-83
2022/10/17 11:20:58;;;;;;;15.27;8.10;;;;;;;16.39;100.00;101772.22;10317266;28;20494;-82
2022/10/17 11:26:01;;;;;;;13.98;7.65;;;;;;;16.32;100.00;101773.72;10302804;28;20048;-83
2022/10/17 11:31:08;;;;;;;19.50;9.40;;;;;;;16.36;100.00;101787.94;10325138;28;20041;-82
2022/10/17 11:36:08;;;;;;;15.68;8.63;;;;;;;16.47;100.00;101802.47;10325225;28;20038;-84
2022/10/17 11:41:17;;;;;;;12.52;8.57;;;;;;;16.51;100.00;101807.03;10348899;28;20463;-87
2022/10/17 11:46:25;;;;;;;15.70;9.38;;;;;;;16.55;100.00;101811.59;10362380;28;20121;-82
2022/10/17 11:51:26;;;;;;;22.85;14.25;;;;;;;16.63;100.00;101808.34;10357807;28;20049;-82
2022/10/17 11:56:40;;;;;;;14.50;8.50;;;;;;;16.64;100.00;101796.94;10340259;28;20091;-82
2022/10/17 12:01:46;;;;;;;14.48;8.18;;;;;;;16.67;100.00;101805.84;10348082;28;20049;-83
2022/10/17 12:07:19;;;;;;;16.05;9.45;;;;;;;16.67;100.00;101829.63;10345443;28;20501;-82
2022/10/17 12:12:27;;;;;;;21.95;10.90;;;;;;;16.64;100.00;101823.34;10333157;28;20037;-83
2022/10/17 12:17:37;;;;;;;24.85;8.65;;;;;;;16.66;100.00;101819.03;10347551;28;20397;-84
2022/10/17 12:22:38;;;;;;;16.17;8.02;;;;;;;16.80;100.00;101835.38;10364966;28;20034;-83
2022/10/17 12:27:44;;;;;;;12.02;7.40;;;;;;;16.88;100.00;101834.84;10345627;28;20145;-83
2022/10/17 12:33:05;;;;;;;288.10;197.63;;;;;;;16.78;100.00;101830.06;10344796;28;20041;-82
2022/10/17 12:38:22;;;;;;;15.20;11.18;;;;;;;16.79;100.00;101831.88;10362056;28;20030;-81
2022/10/17 12:43:28;;;;;;;12.38;6.80;;;;;;;16.73;100.00;101844.84;10347119;28;20620;-82
2022/10/17 12:48:41;;;;;;;13.73;8.48;;;;;;;16.76;100.00;101838.75;10362735;28;20045;-83
2022/10/17 12:54:15;;;;;;;10.43;6.80;;;;;;;16.67;100.00;101847.25;10363197;28;20077;-83
2022/10/17 12:59:15;;;;;;;15.65;8.45;;;;;;;16.58;100.00;101861.00;10364171;28;20045;-82
2022/10/17 13:04:16;;;;;;;14.13;7.60;;;;;;;16.62;100.00;101865.56;10361614;28;20045;-80
2022/10/17 13:09:28;;;;;;;15.77;8.32;;;;;;;16.63;100.00;101867.38;10359447;28;20402;-81
2022/10/17 13:14:29;;;;;;;11.52;7.60;;;;;;;16.63;100.00;101875.28;10361193;28;20048;-82
2022/10/17 13:19:38;;;;;;;16.67;7.43;;;;;;;16.66;100.00;101885.97;10358534;28;20044;-83
2022/10/17 13:24:39;;;;;;;17.58;7.47;;;;;;;16.66;100.00;101887.75;10359515;28;20166;-82
2022/10/17 13:29:43;;;;;;;20.90;7.43;;;;;;;16.66;100.00;101898.31;10339412;28;20112;-82
2022/10/17 13:34:46;;;;;;;19.40;7.60;;;;;;;16.69;100.00;101896.69;10358937;28;20053;-82
2022/10/17 13:39:47;;;;;;;12.50;7.05;;;;;;;16.73;100.00;101918.88;10343353;28;20119;-82
2022/10/17 13:44:48;;;;;;;11.45;6.82;;;;;;;16.63;100.00;101919.34;10357806;28;20487;-81
2022/10/17 13:49:50;;;;;;;11.43;7.75;;;;;;;16.53;100.00;101918.97;10341937;28;20132;-81
2022/10/17 13:54:55;;;;;;;12.02;7.25;;;;;;;16.52;100.00;101927.75;10356296;28;20188;-83
2022/10/17 14:00:04;;;;;;;15.13;9.10;;;;;;;16.46;100.00;101930.13;10344240;28;20038;-83
2022/10/17 14:05:06;;;;;;;12.45;7.18;;;;;;;16.46;100.00;101931.88;10357451;28;20509;-83
2022/10/17 14:10:30;;;;;;;14.53;8.67;;;;;;;16.42;100.00;101952.88;10359988;28;20107;-83
2022/10/17 14:15:32;;;;;;;13.18;7.35;;;;;;;16.48;100.00;101956.59;10338669;28;20839;-80
2022/10/17 14:20:33;;;;;;;31.13;14.48;;;;;;;16.46;100.00;101969.78;10356671;28;20042;-81
2022/10/17 14:25:36;;;;;;;17.00;9.20;;;;;;;16.48;100.00;101970.72;10341565;28;20494;-80
2022/10/17 14:30:37;;;;;;;17.70;8.88;;;;;;;16.59;100.00;101987.94;10332884;28;20038;-80
2022/10/17 14:35:38;;;;;;;16.27;8.65;;;;;;;16.63;100.00;101996.88;10356353;28;20438;-80
2022/10/17 14:40:48;;;;;;;14.23;9.50;;;;;;;16.49;100.00;102001.59;10339554;28;20050;-81
2022/10/17 14:45:48;;;;;;;17.17;8.85;;;;;;;16.32;100.00;101994.72;10354658;28;20217;-82
2022/10/17 14:51:24;;;;;;;15.23;10.88;;;;;;;16.23;100.00;101985.56;10347853;28;20129;-82
2022/10/17 14:56:27;;;;;;;16.52;9.65;;;;;;;16.17;100.00;101981.75;10254308;28;20478;-83
2022/10/17 15:01:28;;;;;;;15.40;10.98;;;;;;;16.10;100.00;101991.16;10359314;28;20511;-83
2022/10/17 15:06:32;;;;;;;16.77;11.43;;;;;;;16.04;100.00;102006.75;10347145;28;20048;-83
2022/10/17 15:11:33;;;;;;;19.35;11.23;;;;;;;16.00;100.00;102033.00;10347884;28;20133;-81
2022/10/17 15:16:33;;;;;;;23.67;12.80;;;;;;;15.96;100.00;102036.34;10363819;28;20038;-84
2022/10/17 15:21:35;;;;;;;17.13;12.80;;;;;;;15.89;100.00;102060.69;10364602;28;20030;-84
2022/10/17 15:26:35;;;;;;;20.80;13.57;;;;;;;15.87;100.00;102057.06;10361818;28;20500;-83
2022/10/17 15:31:36;;;;;;;20.30;13.00;;;;;;;15.83;100.00;102068.28;10346041;28;20084;-82
2022/10/17 15:36:40;;;;;;;23.00;13.10;;;;;;;15.87;100.00;102054.44;10360729;28;20073;-81
2022/10/17 15:41:41;;;;;;;20.65;14.50;;;;;;;15.82;100.00;102054.16;10350589;28;20447;-81
2022/10/17 15:46:41;;;;;;;19.98;14.68;;;;;;;15.84;100.00;102054.25;10362283;28;20041;-80
2022/10/17 15:51:42;;;;;;;20.45;14.70;;;;;;;15.82;100.00;102055.91;10361435;28;20601;-80
2022/10/17 15:56:54;;;;;;;22.33;13.15;;;;;;;15.68;100.00;102065.84;10361641;28;20113;-80
2022/10/17 16:01:54;;;;;;;25.70;16.95;;;;;;;15.59;100.00;102073.31;10361583;28;20053;-82
2022/10/17 16:06:55;;;;;;;19.98;13.70;;;;;;;15.50;100.00;102077.34;10360275;28;20100;-82
2022/10/17 16:11:55;;;;;;;23.75;15.48;;;;;;;15.53;100.00;102076.59;10344772;28;20042;-84
2022/10/17 16:16:57;;;;;;;23.52;13.68;;;;;;;15.48;100.00;102081.66;10334824;28;20073;-80
2022/10/17 16:22:00;;;;;;;24.20;17.35;;;;;;;15.43;100.00;102088.44;10362078;28;20034;-80
2022/10/17 16:27:00;;;;;;;;;;;;;;;15.32;100.00;102081.75;10343820;28;20044;-80
2022/10/17 16:32:01;;;;;;;47.05;17.55;;;;;;;15.16;100.00;102074.84;10360466;28;19926;-82
2022/10/17 16:37:01;;;;;;;29.23;14.32;;;;;;;15.13;100.00;102072.97;10357342;28;20060;-80
2022/10/17 16:42:02;;;;;;;22.30;13.07;;;;;;;15.00;100.00;102078.47;10360906;28;20041;-81
2022/10/17 16:47:02;;;;;;;21.27;12.10;;;;;;;14.90;100.00;102085.94;10355472;28;20046;-77
2022/10/17 16:52:03;;;;;;;47.90;16.98;;;;;;;14.84;100.00;102085.63;10358805;28;20046;-81
2022/10/17 16:57:03;;;;;;;36.40;13.90;;;;;;;14.80;100.00;102092.50;10340280;28;20038;-79
2022/10/17 17:02:04;;;;;;;29.92;16.30;;;;;;;14.81;100.00;102101.28;10360541;28;20041;-78
2022/10/17 17:07:05;;;;;;;66.50;19.58;;;;;;;14.72;100.00;102117.56;10355776;28;20041;-81
2022/10/17 17:12:05;;;;;;;22.65;13.80;;;;;;;14.64;100.00;102122.38;10358752;28;20045;-80
2022/10/17 17:17:06;;;;;;;29.92;15.93;;;;;;;14.60;100.00;102123.06;10358094;28;20485;-82
2022/10/17 17:22:06;;;;;;;66.30;18.42;;;;;;;14.58;100.00;102123.81;10360245;28;20048;-80
2022/10/17 17:27:07;;;;;;;27.08;16.38;;;;;;;14.52;100.00;102137.56;10359149;28;20502;-82
2022/10/17 17:32:07;;;;;;;21.17;14.43;;;;;;;14.50;100.00;102142.75;10360419;28;20062;-81
2022/10/17 17:37:08;;;;;;;40.22;18.63;;;;;;;14.47;100.00;102152.22;10358225;28;20064;-81
2022/10/17 17:42:08;;;;;;;26.83;17.27;;;;;;;14.48;100.00;102154.94;10359031;28;20041;-81
2022/10/17 17:47:09;;;;;;;23.85;13.63;;;;;;;14.45;100.00;102151.22;10357920;28;20054;-81
2022/10/17 17:52:09;;;;;;;39.65;16.73;;;;;;;14.35;100.00;102155.13;10326494;28;20214;-77
2022/10/17 17:57:11;;;;;;;22.52;16.70;;;;;;;14.32;100.00;102154.97;10359218;28;20120;-80
2022/10/17 18:02:11;;;;;;;33.50;19.37;;;;;;;14.30;100.00;102160.13;10342343;28;20137;-81
2022/10/17 18:07:12;;;;;;;41.40;17.92;;;;;;;14.29;100.00;102173.25;10355510;28;20490;-80
2022/10/17 18:12:12;;;;;;;30.38;18.38;;;;;;;14.27;100.00;102169.63;10360609;28;20045;-82
2022/10/17 18:17:13;;;;;;;45.83;21.27;;;;;;;14.21;100.00;102179.00;10332589;28;20038;-80
2022/10/17 18:22:13;;;;;;;30.15;17.27;;;;;;;14.15;100.00;102172.47;10353107;28;20038;-81
2022/10/17 18:27:14;;;;;;;25.15;19.65;;;;;;;14.13;100.00;102182.94;10357043;28;20034;-81
2022/10/17 18:32:15;;;;;;;47.55;15.27;;;;;;;14.13;100.00;102188.22;10355663;28;20548;-80
2022/10/17 18:37:16;;;;;;;25.90;16.13;;;;;;;14.05;100.00;102189.53;10354820;28;20038;-80
2022/10/17 18:42:17;;;;;;;43.35;18.42;;;;;;;14.02;100.00;102197.25;10357670;28;20522;-80
2022/10/17 18:47:18;;;;;;;27.13;19.63;;;;;;;13.99;100.00;102199.72;10356167;28;20108;-80
2022/10/17 18:52:18;;;;;;;62.15;18.40;;;;;;;13.96;100.00;102200.44;10357137;28;20127;-80
2022/10/17 18:57:19;;;;;;;65.07;21.67;;;;;;;13.90;100.00;102195.75;10337103;28;20458;-79
2022/10/17 19:02:19;;;;;;;25.52;16.40;;;;;;;13.79;100.00;102197.78;10358329;28;20042;-80
2022/10/17 19:07:20;;;;;;;37.75;21.55;;;;;;;13.80;100.00;102203.97;10354362;28;20156;-79
2022/10/17 19:12:21;;;;;;;29.50;19.73;;;;;;;13.75;100.00;102208.94;10355793;28;20475;-80
2022/10/17 19:17:22;;;;;;;139.48;27.95;;;;;;;13.68;100.00;102212.06;10354366;28;20069;-80
2022/10/17 19:22:22;;;;;;;33.42;16.80;;;;;;;13.65;100.00;102214.50;10355078;28;20129;-79
2022/10/17 19:27:23;;;;;;;36.05;18.27;;;;;;;13.59;100.00;102220.34;10354721;28;20038;-80
2022/10/17 19:32:23;;;;;;;50.55;22.23;;;;;;;13.61;100.00;102223.03;10356118;28;20508;-80
2022/10/17 19:37:24;;;;;;;43.00;19.83;;;;;;;13.56;100.00;102228.06;10356896;28;20526;-79
2022/10/17 19:42:25;;;;;;;35.17;18.50;;;;;;;13.57;100.00;102222.00;10357053;28;20046;-77
2022/10/17 19:47:26;;;;;;;38.58;21.17;;;;;;;13.53;100.00;102222.63;10357317;28;20057;-80
2022/10/17 19:52:26;;;;;;;46.33;20.13;;;;;;;13.49;100.00;102225.91;10363203;28;20137;-80
2022/10/17 19:57:27;;;;;;;45.92;23.08;;;;;;;13.45;100.00;102218.66;10345194;28;20042;-80
2022/10/17 20:02:27;;;;;;;46.30;24.60;;;;;;;13.41;100.00;102225.41;10361652;28;20046;-79
2022/10/17 20:07:28;;;;;;;59.03;26.65;;;;;;;13.36;100.00;102219.91;10361586;28;20049;-79
2022/10/17 20:12:28;;;;;;;40.85;23.30;;;;;;;13.33;100.00;102219.72;10364771;28;20040;-79
2022/10/17 20:17:29;;;;;;;42.05;25.42;;;;;;;13.29;100.00;102214.19;10339334;28;20042;-82
2022/10/17 20:22:29;;;;;;;45.08;23.05;;;;;;;13.24;100.00;102224.44;10361620;28;20057;-80
2022/10/17 20:27:30;;;;;;;36.50;19.25;;;;;;;13.26;100.00;102227.16;10340914;28;20056;-81
2022/10/17 20:32:33;;;;;;;31.83;17.58;;;;;;;13.16;100.00;102223.09;10363799;28;20109;-81
2022/10/17 20:37:37;;;;;;;25.75;15.65;;;;;;;13.09;100.00;102234.94;10361839;28;20176;-80
2022/10/17 20:42:37;;;;;;;28.17;17.75;;;;;;;13.05;100.00;102232.94;10345662;28;20057;-81
2022/10/17 20:47:38;;;;;;;33.13;17.65;;;;;;;13.01;100.00;102228.31;10361620;28;20250;-80
2022/10/17 20:52:38;;;;;;;25.23;14.35;;;;;;;12.96;100.00;102229.78;10359106;28;20046;-81
2022/10/17 20:57:39;;;;;;;38.97;15.18;;;;;;;12.93;100.00;102236.66;10358682;28;20065;-81
2022/10/17 21:02:39;;;;;;;28.73;14.32;;;;;;;12.89;100.00;102241.66;10361883;28;20069;-81
2022/10/17 21:07:40;;;;;;;30.10;16.00;;;;;;;12.88;100.00;102247.72;10357250;28;20149;-79
2022/10/17 21:12:40;;;;;;;26.83;13.70;;;;;;;12.85;100.00;102251.06;10362111;28;20041;-80
2022/10/17 21:17:41;;;;;;;25.33;13.80;;;;;;;12.83;100.00;102254.44;10360686;28;20069;-79
2022/10/17 21:22:41;;;;;;;31.85;13.70;;;;;;;12.83;100.00;102264.94;10360363;28;20054;-79
2022/10/17 21:27:42;;;;;;;38.78;13.52;;;;;;;12.81;100.00;102269.19;10350206;28;20581;-79
2022/10/17 21:32:42;;;;;;;35.92;11.68;;;;;;;12.76;100.00;102271.50;10361622;28;20044;-78
2022/10/17 21:37:43;;;;;;;53.13;17.27;;;;;;;12.74;100.00;102274.06;10358284;28;20494;-80
2022/10/17 21:42:43;;;;;;;51.92;31.90;;;;;;;12.71;100.00;102259.81;10360889;28;20390;-80
2022/10/17 21:47:44;;;;;;;53.65;29.35;;;;;;;12.70;100.00;102242.25;10360242;28;20516;-80
2022/10/17 21:52:44;;;;;;;38.85;19.13;;;;;;;12.70;100.00;102245.81;10360652;28;20049;-79
2022/10/17 21:57:45;;;;;;;40.25;19.77;;;;;;;12.69;100.00;102269.31;10357849;28;20451;-80
2022/10/17 22:02:45;;;;;;;51.97;26.02;;;;;;;12.58;100.00;102287.97;10363861;28;20160;-79
2022/10/17 22:07:46;;;;;;;51.95;28.83;;;;;;;12.56;100.00;102294.84;10335349;28;20044;-81
2022/10/17 22:12:47;;;;;;;105.90;26.25;;;;;;;12.51;100.00;102295.38;10357990;28;20038;-80
2022/10/17 22:17:47;;;;;;;42.10;25.33;;;;;;;12.45;100.00;102291.56;10357814;28;20117;-81
2022/10/17 22:22:48;;;;;;;46.83;21.70;;;;;;;12.49;100.00;102297.88;10350290;28;20038;-80
2022/10/17 22:27:48;;;;;;;38.58;21.05;;;;;;;12.49;100.00;102303.13;10330632;28;20502;-80
2022/10/17 22:32:50;;;;;;;40.70;21.57;;;;;;;12.47;100.00;102303.06;10344195;28;20406;-80